createdAt,value
2022-12-18T00:01:17.653Z,80.50
2022-12-18T00:03:45.338Z,80.98
2022-12-18T00:06:13.019Z,80.88
2022-12-18T00:08:39.619Z,80.86
2022-12-18T00:11:14.453Z,81.42
2022-12-18T00:13:41.427Z,81.31
2022-12-18T00:16:15.638Z,81.03
2022-12-18T00:18:43.315Z,81.64
2022-12-18T00:21:11.909Z,81.28
2022-12-18T00:23:39.803Z,81.22
2022-12-18T00:26:21.555Z,80.98
2022-12-18T00:28:48.898Z,81.29
2022-12-18T00:31:18.178Z,81.29
2022-12-18T00:33:45.391Z,81.86
2022-12-18T00:36:15.376Z,81.41
2022-12-18T00:38:43.781Z,81.33
2022-12-18T00:41:12.392Z,81.58
2022-12-18T00:43:40.024Z,81.30
2022-12-18T00:46:07.594Z,81.35
2022-12-18T00:48:34.160Z,81.02
2022-12-18T00:51:00.740Z,81.36
2022-12-18T00:53:27.232Z,81.23
2022-12-18T00:55:53.739Z,81.45
2022-12-18T00:58:20.224Z,81.35
2022-12-18T01:00:46.890Z,81.45
2022-12-18T01:03:14.972Z,81.38
2022-12-18T01:05:42.920Z,81.16
2022-12-18T01:08:09.650Z,81.09
2022-12-18T01:10:36.217Z,80.50
2022-12-18T01:13:03.100Z,81.15
2022-12-18T01:15:29.755Z,80.45
2022-12-18T01:17:56.301Z,80.98
2022-12-18T01:20:22.758Z,80.46
2022-12-18T01:22:49.327Z,80.22
2022-12-18T01:25:16.109Z,80.53
2022-12-18T01:27:42.678Z,79.87
2022-12-18T01:30:09.617Z,79.87
2022-12-18T01:32:36.168Z,79.59
2022-12-18T01:35:03.116Z,79.75
2022-12-18T01:37:29.698Z,79.73
2022-12-18T01:39:56.613Z,79.70
2022-12-18T01:42:23.097Z,79.24
2022-12-18T01:45:03.209Z,79.57
2022-12-18T01:47:46.489Z,79.11
2022-12-18T01:50:17.469Z,79.92
2022-12-18T01:52:47.694Z,79.91
2022-12-18T01:55:17.862Z,79.99
2022-12-18T01:57:44.653Z,80.17
2022-12-18T02:00:15.890Z,80.09
2022-12-18T02:02:44.940Z,79.60
2022-12-18T02:05:13.787Z,80.43
2022-12-18T02:07:55.313Z,80.55
2022-12-18T02:10:33.644Z,80.30
2022-12-18T02:13:08.057Z,79.94
2022-12-18T02:16:04.910Z,80.16
2022-12-18T02:18:41.616Z,80.01
2022-12-18T02:21:10.787Z,80.15
2022-12-18T02:23:52.811Z,79.92
2022-12-18T02:26:29.993Z,80.09
2022-12-18T02:29:04.358Z,79.30
2022-12-18T02:31:35.915Z,79.74
2022-12-18T02:34:06.281Z,79.56
2022-12-18T02:36:34.253Z,79.90
2022-12-18T02:39:02.744Z,79.45
2022-12-18T02:41:30.341Z,79.81
2022-12-18T02:43:59.503Z,79.62
2022-12-18T02:46:34.149Z,79.67
2022-12-18T02:49:35.634Z,79.86
2022-12-18T02:52:29.446Z,79.42
2022-12-18T02:55:16.938Z,79.44
2022-12-18T02:57:49.702Z,79.59
2022-12-18T03:00:24.207Z,80.02
2022-12-18T03:03:40.298Z,80.14
2022-12-18T03:06:24.771Z,79.76
2022-12-18T03:08:57.378Z,80.19
2022-12-18T03:11:48.086Z,80.33
2022-12-18T03:14:17.700Z,80.00
2022-12-18T03:16:46.496Z,79.91
2022-12-18T03:19:17.988Z,79.92
2022-12-18T03:21:48.422Z,79.58
2022-12-18T03:24:16.338Z,79.49
2022-12-18T03:26:47.726Z,79.44
2022-12-18T03:29:23.759Z,79.83
2022-12-18T03:32:00.281Z,79.71
2022-12-18T03:34:32.419Z,79.72
2022-12-18T03:36:59.654Z,79.62
2022-12-18T03:39:27.130Z,79.79
2022-12-18T03:42:24.399Z,79.39
2022-12-18T03:45:02.834Z,80.05
2022-12-18T03:47:37.552Z,80.15
2022-12-18T03:50:13.786Z,79.61
2022-12-18T03:52:50.001Z,79.24
2022-12-18T03:55:18.427Z,79.39
2022-12-18T03:57:46.906Z,79.88
2022-12-18T04:00:15.822Z,79.65
2022-12-18T04:02:49.911Z,79.46
2022-12-18T04:05:18.110Z,79.64
2022-12-18T04:07:47.938Z,79.66
2022-12-18T04:10:16.876Z,79.90
2022-12-18T04:12:43.892Z,79.55
2022-12-18T04:15:12.135Z,79.71
2022-12-18T04:17:39.996Z,79.65
2022-12-18T04:20:07.038Z,79.07
2022-12-18T04:22:33.501Z,79.51
2022-12-18T04:25:00.006Z,79.15
2022-12-18T04:27:26.555Z,79.37
2022-12-18T04:29:53.155Z,79.26
2022-12-18T04:32:19.697Z,78.74
2022-12-18T04:34:46.302Z,79.30
2022-12-18T04:37:12.859Z,79.04
2022-12-18T04:39:39.388Z,78.83
2022-12-18T04:42:06.025Z,79.16
2022-12-18T04:44:32.546Z,78.55
2022-12-18T04:46:59.164Z,79.45
2022-12-18T04:49:25.748Z,79.81
2022-12-18T04:51:52.720Z,79.35
2022-12-18T04:54:22.275Z,79.30
2022-12-18T04:56:49.779Z,79.87
2022-12-18T04:59:16.230Z,79.89
2022-12-18T05:01:42.882Z,79.53
2022-12-18T05:04:09.702Z,80.11
2022-12-18T05:06:36.403Z,79.71
2022-12-18T05:09:03.073Z,79.14
2022-12-18T05:11:29.551Z,79.28
2022-12-18T05:13:59.119Z,79.67
2022-12-18T05:16:25.723Z,79.71
2022-12-18T05:18:52.330Z,79.80
2022-12-18T05:21:18.822Z,79.86
2022-12-18T05:23:45.324Z,80.43
2022-12-18T05:26:16.911Z,80.37
2022-12-18T05:28:43.701Z,79.79
2022-12-18T05:31:10.764Z,80.30
2022-12-18T05:33:37.659Z,79.93
2022-12-18T05:36:07.753Z,79.89
2022-12-18T05:38:36.328Z,81.19
2022-12-18T05:41:03.582Z,80.67
2022-12-18T05:43:30.228Z,81.55
2022-12-18T05:45:57.899Z,81.21
2022-12-18T05:48:24.571Z,81.08
2022-12-18T05:50:51.929Z,81.10
2022-12-18T05:53:20.714Z,81.06
2022-12-18T05:55:47.820Z,81.09
2022-12-18T05:58:15.382Z,81.44
2022-12-18T06:00:47.045Z,81.34
2022-12-18T06:03:14.588Z,81.07
2022-12-18T06:05:44.250Z,81.55
2022-12-18T06:08:11.643Z,81.62
2022-12-18T06:10:38.807Z,81.14
2022-12-18T06:13:06.317Z,82.13
2022-12-18T06:15:33.135Z,81.71
2022-12-18T06:18:01.979Z,82.47
2022-12-18T06:20:33.603Z,83.35
2022-12-18T06:23:00.685Z,83.42
2022-12-18T06:25:27.282Z,83.25
2022-12-18T06:27:53.854Z,82.88
2022-12-18T06:30:20.494Z,83.01
2022-12-18T06:32:53.068Z,83.01
2022-12-18T06:35:22.982Z,82.94
2022-12-18T06:37:49.520Z,83.40
2022-12-18T06:40:16.019Z,83.76
2022-12-18T06:42:42.609Z,83.49
2022-12-18T06:45:09.773Z,83.32
2022-12-18T06:47:36.265Z,83.37
2022-12-18T06:50:03.474Z,83.10
2022-12-18T06:52:33.147Z,83.26
2022-12-18T06:54:59.700Z,83.41
2022-12-18T06:57:26.311Z,83.13
2022-12-18T06:59:52.895Z,83.22
2022-12-18T07:02:19.484Z,83.11
2022-12-18T07:04:46.113Z,83.06
2022-12-18T07:07:12.613Z,83.09
2022-12-18T07:09:39.123Z,83.13
2022-12-18T07:12:06.126Z,83.35
2022-12-18T07:14:32.606Z,82.91
2022-12-18T07:16:59.169Z,82.87
2022-12-18T07:19:26.774Z,83.47
2022-12-18T07:21:53.255Z,83.42
2022-12-18T07:24:19.915Z,82.77
2022-12-18T07:26:47.761Z,82.54
2022-12-18T07:29:14.347Z,82.61
2022-12-18T07:31:40.888Z,83.05
2022-12-18T07:34:11.492Z,83.22
2022-12-18T07:36:38.372Z,82.80
2022-12-18T07:39:04.974Z,82.91
2022-12-18T07:41:31.644Z,82.81
2022-12-18T07:43:58.214Z,83.54
2022-12-18T07:46:24.759Z,82.93
2022-12-18T07:48:51.363Z,82.85
2022-12-18T07:51:18.900Z,82.73
2022-12-18T07:53:45.571Z,82.78
2022-12-18T07:56:30.377Z,83.21
2022-12-18T07:58:58.086Z,82.70
2022-12-18T08:01:24.966Z,82.74
2022-12-18T08:03:52.202Z,82.54
2022-12-18T08:06:19.176Z,82.45
2022-12-18T08:08:45.809Z,83.07
2022-12-18T08:11:12.307Z,82.33
2022-12-18T08:13:39.137Z,82.20
2022-12-18T08:16:08.216Z,82.50
2022-12-18T08:18:37.051Z,82.14
2022-12-18T08:21:18.301Z,82.89
2022-12-18T08:23:46.265Z,82.26
2022-12-18T08:26:13.534Z,81.89
2022-12-18T08:28:40.887Z,82.48
2022-12-18T08:31:08.184Z,81.60
2022-12-18T08:33:35.566Z,81.33
2022-12-18T08:36:03.095Z,81.38
2022-12-18T08:38:29.607Z,82.54
2022-12-18T08:41:04.029Z,83.16
2022-12-18T08:43:49.326Z,82.69
2022-12-18T08:46:20.165Z,82.51
2022-12-18T08:48:47.361Z,82.54
2022-12-18T08:51:14.483Z,82.97
2022-12-18T08:53:41.540Z,83.14
2022-12-18T08:56:08.648Z,83.16
2022-12-18T08:58:35.179Z,82.26
2022-12-18T09:01:07.062Z,82.86
2022-12-18T09:03:34.105Z,82.25
2022-12-18T09:06:00.659Z,81.48
2022-12-18T09:08:27.959Z,80.73
2022-12-18T09:10:54.730Z,80.58
2022-12-18T09:13:21.896Z,80.73
2022-12-18T09:15:50.785Z,83.05
2022-12-18T09:18:20.027Z,81.53
2022-12-18T09:20:47.037Z,80.61
2022-12-18T09:23:13.709Z,80.79
2022-12-18T09:25:40.590Z,80.83
2022-12-18T09:28:11.949Z,80.98
2022-12-18T09:30:44.152Z,81.39
2022-12-18T09:33:10.930Z,80.58
2022-12-18T09:35:42.279Z,79.93
2022-12-18T09:38:11.157Z,79.93
2022-12-18T09:40:43.937Z,79.90
2022-12-18T09:43:38.398Z,80.80
2022-12-18T09:46:10.099Z,80.14
2022-12-18T09:48:42.815Z,81.01
2022-12-18T09:51:20.667Z,80.67
2022-12-18T09:53:55.013Z,79.88
2022-12-18T09:56:24.038Z,81.01
2022-12-18T09:58:59.461Z,80.94
2022-12-18T10:01:35.468Z,81.43
2022-12-18T10:04:09.880Z,83.25
2022-12-18T10:06:53.773Z,82.31
2022-12-18T10:09:31.074Z,81.87
2022-12-18T10:12:30.705Z,81.59
2022-12-18T10:15:28.749Z,81.97
2022-12-18T10:18:21.886Z,81.79
2022-12-18T10:21:04.807Z,83.30
2022-12-18T10:23:46.575Z,81.81
2022-12-18T10:26:14.758Z,81.78
2022-12-18T10:28:43.105Z,81.71
2022-12-18T10:31:19.576Z,81.08
2022-12-18T10:33:46.190Z,80.78
2022-12-18T10:36:13.206Z,80.93
2022-12-18T10:38:40.115Z,79.92
2022-12-18T10:41:19.131Z,79.08
2022-12-18T10:43:48.793Z,79.01
2022-12-18T10:46:20.765Z,78.67
2022-12-18T10:48:58.666Z,78.14
2022-12-18T10:51:31.728Z,79.46
2022-12-18T10:54:24.958Z,78.52
2022-12-18T10:56:51.446Z,79.21
2022-12-18T10:59:19.000Z,79.47
2022-12-18T11:01:52.835Z,80.10
2022-12-18T11:04:28.936Z,80.68
2022-12-18T11:07:05.879Z,79.74
2022-12-18T11:09:38.177Z,79.21
2022-12-18T11:12:09.347Z,80.04
2022-12-18T11:14:58.699Z,79.20
2022-12-18T11:17:36.921Z,78.36
2022-12-18T11:20:20.361Z,79.01
2022-12-18T11:22:58.397Z,79.85
2022-12-18T11:25:34.016Z,79.19
2022-12-18T11:28:26.023Z,78.70
2022-12-18T11:31:16.334Z,77.91
2022-12-18T11:34:26.974Z,77.69
2022-12-18T11:36:45.249Z,78.03
2022-12-18T11:39:26.149Z,77.95
2022-12-18T11:42:21.059Z,77.35
2022-12-18T11:44:54.876Z,77.52
2022-12-18T11:47:40.264Z,78.38
2022-12-18T11:50:33.815Z,76.92
2022-12-18T11:53:05.620Z,78.48
2022-12-18T11:56:07.309Z,78.14
2022-12-18T11:58:42.834Z,78.21
2022-12-18T12:01:28.361Z,77.60
2022-12-18T12:03:57.634Z,78.29
2022-12-18T12:06:44.643Z,78.58
2022-12-18T12:09:35.064Z,77.72
2022-12-18T12:12:07.448Z,76.97
2022-12-18T12:14:56.380Z,76.05
2022-12-18T12:17:49.202Z,76.77
2022-12-18T12:20:38.736Z,76.10
2022-12-18T12:23:11.224Z,76.64
2022-12-18T12:26:01.730Z,77.64
2022-12-18T12:29:15.483Z,76.92
2022-12-18T12:31:55.038Z,76.87
2022-12-18T12:34:32.440Z,76.52
2022-12-18T12:37:14.168Z,77.26
2022-12-18T12:39:43.278Z,76.53
2022-12-18T12:42:42.035Z,76.08
2022-12-18T12:45:34.851Z,76.65
2022-12-18T12:48:03.438Z,77.22
2022-12-18T12:50:35.186Z,77.14
2022-12-18T12:53:07.065Z,77.28
2022-12-18T12:55:33.789Z,77.64
2022-12-18T12:58:09.479Z,77.58
2022-12-18T13:00:52.240Z,77.41
2022-12-18T13:03:32.772Z,77.72
2022-12-18T13:06:14.201Z,78.27
2022-12-18T13:09:01.474Z,77.80
2022-12-18T13:11:59.820Z,77.15
2022-12-18T13:14:33.883Z,77.44
2022-12-18T13:17:26.228Z,78.12
2022-12-18T13:20:05.589Z,77.64
2022-12-18T13:22:49.989Z,77.50
2022-12-18T13:25:31.840Z,78.09
2022-12-18T13:28:10.003Z,78.35
2022-12-18T13:30:36.472Z,77.84
2022-12-18T13:33:15.576Z,78.28
2022-12-18T13:36:02.434Z,79.18
2022-12-18T13:38:37.070Z,79.84
2022-12-18T13:41:23.612Z,80.33
2022-12-18T13:43:52.475Z,80.69
2022-12-18T13:46:29.413Z,80.21
2022-12-18T13:49:14.148Z,80.48
2022-12-18T13:51:52.692Z,86.09
2022-12-18T13:54:38.631Z,82.17
2022-12-18T13:57:07.812Z,81.31
2022-12-18T13:59:35.377Z,81.42
2022-12-18T14:02:27.404Z,82.36
2022-12-18T14:04:55.228Z,81.95
2022-12-18T14:07:27.225Z,82.46
2022-12-18T14:12:57.737Z,81.11
2022-12-18T14:15:27.354Z,82.36
2022-12-18T14:17:56.866Z,82.53
2022-12-18T14:20:25.155Z,82.43
2022-12-18T14:22:51.785Z,82.15
2022-12-18T14:25:23.147Z,82.13
2022-12-18T14:28:16.242Z,81.44
2022-12-18T14:30:45.259Z,80.99
2022-12-18T14:33:19.614Z,80.72
2022-12-18T14:35:56.305Z,81.03
2022-12-18T14:38:28.316Z,81.40
2022-12-18T14:41:00.154Z,82.63
2022-12-18T14:43:33.217Z,82.63
2022-12-18T14:46:00.458Z,83.27
2022-12-18T14:48:40.001Z,83.15
2022-12-18T14:51:17.770Z,82.95
2022-12-18T14:53:53.622Z,82.97
2022-12-18T14:56:25.076Z,84.46
2022-12-18T14:59:00.367Z,84.34
2022-12-18T15:01:30.496Z,83.98
2022-12-18T15:03:58.597Z,83.41
2022-12-18T15:06:30.253Z,83.43
2022-12-18T15:08:57.526Z,83.40
2022-12-18T15:11:33.154Z,83.52
2022-12-18T15:14:01.216Z,83.43
2022-12-18T15:16:27.948Z,83.47
2022-12-18T15:18:54.698Z,83.82
2022-12-18T15:21:22.337Z,83.92
2022-12-18T15:23:52.228Z,83.82
2022-12-18T15:26:22.008Z,83.85
2022-12-18T15:28:51.198Z,83.16
2022-12-18T15:31:18.052Z,84.20
2022-12-18T15:34:00.734Z,83.76
2022-12-18T15:36:37.441Z,84.00
2022-12-18T15:39:07.166Z,83.97
2022-12-18T15:41:37.468Z,83.65
2022-12-18T15:44:20.735Z,84.28
2022-12-18T15:46:47.330Z,83.71
2022-12-18T15:49:13.847Z,84.03
2022-12-18T15:51:40.578Z,83.72
2022-12-18T15:54:12.859Z,83.14
2022-12-18T15:56:57.938Z,83.63
2022-12-18T15:59:26.647Z,83.67
2022-12-18T16:01:56.816Z,83.88
2022-12-18T16:04:24.656Z,83.59
2022-12-18T16:09:39.760Z,83.29
2022-12-18T16:12:07.828Z,83.61
2022-12-18T16:14:34.304Z,83.39
2022-12-18T16:17:03.666Z,82.20
2022-12-18T16:19:31.137Z,82.68
2022-12-18T16:21:58.989Z,82.79
2022-12-18T16:24:31.104Z,81.90
2022-12-18T16:27:00.340Z,83.73
2022-12-18T16:29:28.724Z,82.98
2022-12-18T16:32:00.634Z,82.31
2022-12-18T16:34:35.484Z,81.99
2022-12-18T16:37:08.792Z,81.26
2022-12-18T16:39:36.398Z,80.62
2022-12-18T16:42:06.283Z,81.24
2022-12-18T16:44:34.545Z,82.59
2022-12-18T16:47:03.277Z,82.34
2022-12-18T16:49:30.407Z,81.92
2022-12-18T16:51:56.981Z,81.25
2022-12-18T16:54:23.531Z,80.94
2022-12-18T16:56:51.659Z,80.88
2022-12-18T16:59:18.709Z,82.09
2022-12-18T17:01:45.332Z,82.04
2022-12-18T17:04:12.008Z,81.64
2022-12-18T17:06:44.251Z,81.64
2022-12-18T17:09:16.371Z,81.18
2022-12-18T17:11:43.683Z,81.55
2022-12-18T17:14:13.682Z,81.93
2022-12-18T17:16:40.285Z,81.99
2022-12-18T17:19:09.805Z,82.14
2022-12-18T17:21:40.173Z,82.57
2022-12-18T17:24:07.834Z,82.35
2022-12-18T17:26:34.493Z,82.56
2022-12-18T17:29:01.107Z,82.67
2022-12-18T17:31:29.770Z,82.03
2022-12-18T17:33:57.068Z,81.65
2022-12-18T17:36:24.802Z,82.48
2022-12-18T17:38:53.231Z,81.59
2022-12-18T17:41:20.287Z,81.14
2022-12-18T17:43:58.148Z,80.31
2022-12-18T17:46:25.975Z,80.88
2022-12-18T17:48:54.941Z,81.22
2022-12-18T17:51:21.566Z,81.56
2022-12-18T17:53:48.315Z,81.90
2022-12-18T17:56:17.344Z,82.02
2022-12-18T17:58:44.537Z,82.24
2022-12-18T18:01:15.166Z,82.01
2022-12-18T18:03:43.791Z,81.39
2022-12-18T18:06:11.594Z,82.13
2022-12-18T18:08:38.123Z,81.98
2022-12-18T18:11:30.189Z,81.69
2022-12-18T18:14:02.755Z,81.55
2022-12-18T18:16:37.739Z,81.54
2022-12-18T18:19:07.095Z,81.34
2022-12-18T18:21:37.730Z,82.60
2022-12-18T18:24:05.866Z,81.79
2022-12-18T18:26:33.501Z,81.84
2022-12-18T18:29:01.968Z,83.44
2022-12-18T18:31:31.394Z,81.99
2022-12-18T18:33:58.690Z,82.27
2022-12-18T18:36:25.570Z,81.76
2022-12-18T18:38:52.701Z,81.33
2022-12-18T18:41:19.991Z,81.22
2022-12-18T18:43:46.641Z,81.40
2022-12-18T18:46:15.482Z,81.18
2022-12-18T18:48:43.759Z,81.41
2022-12-18T18:51:20.651Z,81.30
2022-12-18T18:53:50.417Z,81.12
2022-12-18T18:59:08.771Z,82.32
2022-12-18T19:01:35.424Z,82.86
2022-12-18T19:04:05.290Z,83.14
2022-12-18T19:06:31.943Z,82.77
2022-12-18T19:09:02.567Z,82.82
2022-12-18T19:11:47.402Z,82.67
2022-12-18T19:14:15.784Z,82.36
2022-12-18T19:16:43.468Z,82.64
2022-12-18T19:19:10.906Z,86.64
2022-12-18T19:21:38.330Z,83.66
2022-12-18T19:24:05.924Z,83.13
2022-12-18T19:26:32.632Z,83.26
2022-12-18T19:29:06.931Z,83.01
2022-12-18T19:31:36.347Z,83.86
2022-12-18T19:34:05.371Z,83.29
2022-12-18T19:36:32.915Z,82.97
2022-12-18T19:39:01.306Z,83.06
2022-12-18T19:41:32.839Z,82.56
2022-12-18T19:43:59.631Z,82.22
2022-12-18T19:46:26.249Z,82.77
2022-12-18T19:48:53.701Z,82.81
2022-12-18T19:51:23.817Z,82.97
2022-12-18T19:53:56.452Z,83.23
2022-12-18T19:56:26.903Z,83.82
2022-12-18T19:58:54.871Z,84.17
2022-12-18T20:01:23.956Z,84.17
2022-12-18T20:03:52.547Z,84.50
2022-12-18T20:06:26.148Z,84.52
2022-12-18T20:08:59.976Z,84.32
2022-12-18T20:11:28.314Z,83.93
2022-12-18T20:13:54.959Z,84.01
2022-12-18T20:16:21.678Z,83.77
2022-12-18T20:18:49.230Z,84.13
2022-12-18T20:21:16.083Z,84.54
2022-12-18T20:23:43.321Z,84.43
2022-12-18T20:26:10.648Z,84.54
2022-12-18T20:28:37.344Z,84.29
2022-12-18T20:31:10.365Z,84.24
2022-12-18T20:33:40.416Z,84.10
2022-12-18T20:36:14.237Z,84.22
2022-12-18T20:38:42.126Z,84.36
2022-12-18T20:41:17.344Z,84.09
2022-12-18T20:43:45.060Z,84.05
2022-12-18T20:46:14.405Z,83.76
2022-12-18T20:48:42.206Z,83.67
2022-12-18T20:51:14.641Z,84.10
2022-12-18T20:53:42.069Z,84.25
2022-12-18T20:56:21.290Z,83.98
2022-12-18T20:58:49.745Z,83.94
2022-12-18T21:01:18.902Z,84.36
2022-12-18T21:03:46.586Z,84.20
2022-12-18T21:06:15.439Z,83.80
2022-12-18T21:08:42.486Z,83.45
2022-12-18T21:11:40.875Z,83.78
2022-12-18T21:14:19.591Z,83.78
2022-12-18T21:16:47.556Z,84.14
2022-12-18T21:19:20.630Z,83.81
2022-12-18T21:21:47.487Z,83.84
2022-12-18T21:24:14.412Z,84.09
2022-12-18T21:26:46.090Z,84.03
2022-12-18T21:29:22.689Z,83.96
2022-12-18T21:31:50.613Z,83.96
2022-12-18T21:34:20.412Z,83.69
2022-12-18T21:36:47.761Z,84.13
2022-12-18T21:39:16.050Z,83.91
2022-12-18T21:42:01.593Z,83.53
2022-12-18T21:44:28.847Z,83.56
2022-12-18T21:47:00.581Z,83.35
2022-12-18T21:49:33.444Z,83.41
2022-12-18T21:52:01.282Z,83.36
2022-12-18T21:54:29.143Z,83.24
2022-12-18T21:56:58.373Z,83.45
2022-12-18T21:59:36.044Z,83.49
2022-12-18T22:02:11.598Z,83.68
2022-12-18T22:04:38.228Z,83.38
2022-12-18T22:07:06.128Z,83.34
2022-12-18T22:09:32.698Z,83.17
2022-12-18T22:11:59.608Z,83.49
2022-12-18T22:14:27.074Z,83.58
2022-12-18T22:16:55.927Z,83.26
2022-12-18T22:19:22.419Z,83.17
2022-12-18T22:21:49.498Z,83.15
2022-12-18T22:24:18.814Z,83.12
2022-12-18T22:26:46.438Z,83.34
2022-12-18T22:29:37.236Z,83.37
2022-12-18T22:32:05.195Z,82.76
2022-12-18T22:34:36.478Z,83.05
2022-12-18T22:37:04.862Z,83.01
2022-12-18T22:39:31.906Z,82.42
2022-12-18T22:41:58.954Z,82.60
2022-12-18T22:44:25.690Z,82.18
2022-12-18T22:47:05.532Z,81.94
2022-12-18T22:49:33.941Z,82.11
2022-12-18T22:52:02.176Z,82.34
2022-12-18T22:54:28.688Z,82.23
2022-12-18T22:56:55.643Z,81.76
2022-12-18T22:59:23.156Z,81.99
2022-12-18T23:01:52.928Z,81.56
2022-12-18T23:04:29.069Z,81.07
2022-12-18T23:07:03.656Z,81.33
2022-12-18T23:09:30.323Z,81.17
2022-12-18T23:11:56.843Z,81.08
2022-12-18T23:14:23.373Z,81.09
2022-12-18T23:16:49.977Z,81.39
2022-12-18T23:19:18.896Z,81.18
2022-12-18T23:21:45.413Z,80.85
2022-12-18T23:24:12.078Z,80.84
2022-12-18T23:26:38.974Z,80.61
2022-12-18T23:29:05.603Z,81.10
2022-12-18T23:31:34.863Z,81.22
2022-12-18T23:34:03.006Z,81.19
2022-12-18T23:36:30.542Z,81.32
2022-12-18T23:39:01.318Z,81.47
2022-12-18T23:41:32.697Z,81.42
2022-12-18T23:44:00.369Z,81.98
2022-12-18T23:46:29.649Z,81.99
2022-12-18T23:48:57.840Z,81.70
2022-12-18T23:51:25.788Z,82.08
2022-12-18T23:53:53.741Z,81.94
2022-12-18T23:56:20.268Z,82.35
2022-12-18T23:58:48.913Z,81.77
